Time;durP1;ratioP1;P1;durP2;ratioP2;P2;SDS_P1;SDS_P2;PMS_P1;PMS_P2;Temp;Humidity;BMP_temperature;BMP_pressure;BME280_temperature;BME280_humidity;BME280_pressure;Samples;Min_cycle;Max_cycle;Signal;HPM_P1;HPM_P2
2021/09/26 00:02:14;;;;;;;11.80;11.10;;;15.80;99.90;;;;;;5082708;28;20439;-62
2021/09/26 00:04:41;;;;;;;13.33;12.33;;;15.80;99.90;;;;;;5085425;28;20497;-62
2021/09/26 00:07:08;;;;;;;11.00;10.20;;;15.80;99.90;;;;;;5087146;28;20442;-64
2021/09/26 00:09:35;;;;;;;11.27;10.40;;;15.70;99.90;;;;;;5084225;28;20469;-63
2021/09/26 00:12:02;;;;;;;11.87;10.87;;;15.70;99.90;;;;;;5083233;28;20475;-64
2021/09/26 00:14:29;;;;;;;12.43;11.33;;;15.70;99.90;;;;;;5074351;28;20446;-62
2021/09/26 00:16:58;;;;;;;11.23;10.30;;;15.60;99.90;;;;;;5082225;28;20443;-63
2021/09/26 00:19:25;;;;;;;11.13;10.43;;;15.60;99.90;;;;;;5083676;28;20466;-64
2021/09/26 00:21:52;;;;;;;12.60;11.40;;;15.60;99.90;;;;;;5084090;28;20451;-63
2021/09/26 00:24:18;;;;;;;11.90;11.10;;;15.60;99.90;;;;;;5083038;28;20453;-63
2021/09/26 00:26:45;;;;;;;13.87;12.50;;;15.60;99.90;;;;;;5082080;28;20482;-62
2021/09/26 00:29:12;;;;;;;12.63;11.80;;;15.70;99.90;;;;;;5081237;28;20451;-64
2021/09/26 00:31:38;;;;;;;12.20;11.20;;;15.70;99.90;;;;;;5080632;28;20937;-64
2021/09/26 00:34:07;;;;;;;10.87;10.17;;;15.80;99.90;;;;;;5080812;28;20479;-64
2021/09/26 00:36:33;;;;;;;11.07;10.37;;;15.90;99.90;;;;;;5079812;28;20467;-63
2021/09/26 00:39:00;;;;;;;11.77;10.97;;;16.00;99.90;;;;;;5080538;28;20447;-63
2021/09/26 00:41:27;;;;;;;12.13;11.20;;;16.00;99.90;;;;;;5081959;28;20454;-64
2021/09/26 00:43:53;;;;;;;11.30;10.60;;;16.00;99.90;;;;;;5080963;28;20443;-63
2021/09/26 00:46:20;;;;;;;11.87;11.17;;;16.10;99.90;;;;;;5080442;28;20471;-62
2021/09/26 00:48:47;;;;;;;12.27;11.40;;;16.10;99.90;;;;;;5078602;28;20447;-63
2021/09/26 00:51:15;;;;;;;10.70;10.00;;;16.10;99.90;;;;;;5079078;28;20465;-64
2021/09/26 00:53:43;;;;;;;12.60;11.60;;;16.10;99.90;;;;;;5078680;28;20490;-64
2021/09/26 00:56:11;;;;;;;12.27;11.37;;;16.10;99.90;;;;;;5078229;28;20519;-64
2021/09/26 00:58:38;;;;;;;11.00;10.40;;;16.10;99.90;;;;;;5077426;28;20450;-63
2021/09/26 01:01:05;;;;;;;11.27;10.47;;;16.10;99.90;;;;;;5080294;28;20443;-63
2021/09/26 01:03:32;;;;;;;11.50;10.80;;;16.10;99.90;;;;;;5080143;28;20808;-64
2021/09/26 01:06:10;;;;;;;12.43;11.37;;;16.10;99.90;;;;;;5082437;28;20459;-62
2021/09/26 01:08:49;;;;;;;12.73;11.83;;;16.10;99.90;;;;;;5063474;28;20448;-62
2021/09/26 01:11:23;;;;;;;11.00;10.27;;;16.20;99.90;;;;;;5063351;28;20447;-63
2021/09/26 01:14:01;;;;;;;12.70;11.90;;;16.20;99.90;;;;;;5063642;28;20487;-64
2021/09/26 01:16:32;;;;;;;12.13;11.10;;;16.30;99.90;;;;;;5063439;28;20468;-62
2021/09/26 01:19:13;;;;;;;11.50;10.73;;;16.30;99.90;;;;;;5070573;28;20443;-62
2021/09/26 01:21:45;;;;;;;12.20;11.30;;;16.30;99.90;;;;;;5083717;28;20446;-64
2021/09/26 01:24:41;;;;;;;12.20;11.40;;;16.40;99.90;;;;;;5083833;28;20447;-63
2021/09/26 01:27:20;;;;;;;11.10;10.40;;;16.40;99.90;;;;;;5083862;28;20443;-62
2021/09/26 01:30:14;;;;;;;12.33;11.30;;;16.40;99.90;;;;;;5081141;28;20440;-63
2021/09/26 01:32:45;;;;;;;11.60;10.90;;;16.40;99.90;;;;;;5079762;28;20490;-61
2021/09/26 01:35:14;;;;;;;11.90;11.10;;;16.50;99.90;;;;;;5078169;28;20470;-63
2021/09/26 01:37:45;;;;;;;12.17;11.37;;;16.60;99.90;;;;;;5078274;28;20474;-62
2021/09/26 01:40:16;;;;;;;11.80;11.10;;;16.60;99.90;;;;;;5082412;28;20443;-63
2021/09/26 01:42:48;;;;;;;12.37;11.67;;;16.60;99.90;;;;;;5084893;28;20439;-63
2021/09/26 01:45:20;;;;;;;11.77;11.07;;;16.70;99.90;;;;;;5082506;28;20471;-63
2021/09/26 01:47:52;;;;;;;13.23;12.50;;;16.80;99.90;;;;;;5081778;28;20921;-64
2021/09/26 01:50:22;;;;;;;12.60;11.77;;;16.90;99.90;;;;;;5081165;28;20443;-63
2021/09/26 01:52:51;;;;;;;12.13;11.40;;;17.00;99.90;;;;;;5081763;28;20487;-64
2021/09/26 01:55:20;;;;;;;13.00;12.20;;;17.10;99.90;;;;;;5080791;28;20471;-63
2021/09/26 01:57:48;;;;;;;12.20;11.40;;;17.10;99.90;;;;;;5078864;28;20784;-64
2021/09/26 02:00:16;;;;;;;12.93;11.70;;;17.10;99.90;;;;;;5076619;28;20452;-63
2021/09/26 02:02:45;;;;;;;11.70;11.10;;;17.10;99.90;;;;;;5078653;28;20820;-64
2021/09/26 02:05:12;;;;;;;12.63;12.03;;;17.20;99.90;;;;;;5080732;28;20463;-64
2021/09/26 02:07:42;;;;;;;12.83;12.03;;;17.20;99.90;;;;;;5081112;28;20443;-63
2021/09/26 02:10:10;;;;;;;12.50;11.80;;;17.20;99.90;;;;;;5079939;28;20825;-63
2021/09/26 02:12:37;;;;;;;12.80;12.00;;;17.20;99.90;;;;;;5078826;28;20479;-63
2021/09/26 02:15:07;;;;;;;13.40;12.57;;;17.20;99.90;;;;;;5078839;28;20471;-63
2021/09/26 02:17:37;;;;;;;12.93;12.23;;;17.20;99.90;;;;;;5079317;28;20458;-62
2021/09/26 02:20:06;;;;;;;13.73;12.90;;;17.20;99.90;;;;;;5079431;28;20447;-62
2021/09/26 02:22:34;;;;;;;13.20;12.50;;;17.20;99.90;;;;;;5079805;28;20466;-63
2021/09/26 02:25:05;;;;;;;13.10;12.30;;;17.20;99.90;;;;;;5077729;28;20489;-58
2021/09/26 02:27:33;;;;;;;12.97;12.20;;;17.20;99.90;;;;;;5071736;28;20447;-58
2021/09/26 02:30:00;;;;;;;12.70;12.00;;;17.20;99.90;;;;;;5071147;28;20447;-60
2021/09/26 02:32:27;;;;;;;13.47;12.70;;;17.30;99.90;;;;;;5071424;28;20443;-57
2021/09/26 02:34:55;;;;;;;13.90;13.10;;;17.30;99.90;;;;;;5071633;28;20466;-55
2021/09/26 02:37:22;;;;;;;13.27;12.47;;;17.30;99.90;;;;;;5071472;28;20448;-55
2021/09/26 02:39:49;;;;;;;13.70;12.90;;;17.30;99.90;;;;;;5071190;28;20813;-56
2021/09/26 02:42:22;;;;;;;13.60;12.63;;;17.40;99.90;;;;;;5071519;28;20527;-55
2021/09/26 02:45:02;;;;;;;13.57;12.87;;;17.40;99.90;;;;;;5051405;28;20985;-57
2021/09/26 02:47:34;;;;;;;12.97;12.37;;;17.40;99.90;;;;;;5051416;28;20436;-57
2021/09/26 02:50:02;;;;;;;12.80;12.10;;;17.40;99.90;;;;;;5051200;28;20459;-57
2021/09/26 02:52:30;;;;;;;13.47;12.77;;;17.50;99.90;;;;;;5051373;28;20448;-59
2021/09/26 02:54:58;;;;;;;14.03;13.23;;;17.50;99.90;;;;;;5051146;28;20468;-58
2021/09/26 02:57:24;;;;;;;13.47;12.67;;;17.50;99.90;;;;;;5058905;28;20447;-58
2021/09/26 02:59:51;;;;;;;12.63;11.93;;;17.50;99.90;;;;;;5071011;28;20440;-61
2021/09/26 03:02:18;;;;;;;12.87;12.10;;;17.50;99.90;;;;;;5071276;28;20470;-61
2021/09/26 03:04:46;;;;;;;13.10;12.50;;;17.50;99.90;;;;;;5071241;28;20489;-58
2021/09/26 03:07:15;;;;;;;13.20;12.43;;;17.50;99.90;;;;;;5070865;28;20813;-59
2021/09/26 03:09:42;;;;;;;13.20;12.30;;;17.50;99.90;;;;;;5071062;28;21045;-59
2021/09/26 03:12:14;;;;;;;13.70;12.87;;;17.50;99.90;;;;;;5071005;28;20447;-58
2021/09/26 03:14:41;;;;;;;13.33;12.37;;;17.50;99.90;;;;;;5071024;28;20475;-61
2021/09/26 03:17:08;;;;;;;14.33;13.53;;;17.50;99.90;;;;;;5071061;28;20458;-61
2021/09/26 03:19:35;;;;;;;14.17;13.33;;;17.60;99.90;;;;;;5070986;28;20446;-56
2021/09/26 03:22:01;;;;;;;14.00;13.20;;;17.50;99.90;;;;;;5071120;28;20458;-58
2021/09/26 03:24:30;;;;;;;13.53;12.63;;;17.50;99.90;;;;;;5070925;28;20896;-57
2021/09/26 03:26:58;;;;;;;14.53;13.73;;;17.50;99.90;;;;;;5070998;28;20816;-57
2021/09/26 03:29:25;;;;;;;14.00;13.10;;;17.50;99.90;;;;;;5070787;28;20539;-59
2021/09/26 03:31:51;;;;;;;12.97;12.30;;;17.50;99.90;;;;;;5072828;28;20439;-59
2021/09/26 03:34:18;;;;;;;14.23;13.33;;;17.50;99.90;;;;;;5074537;28;20482;-59
2021/09/26 03:36:45;;;;;;;14.03;13.23;;;17.60;99.90;;;;;;5073822;28;20443;-60
2021/09/26 03:39:11;;;;;;;14.67;13.93;;;17.60;99.90;;;;;;5074072;28;20451;-60
2021/09/26 03:41:39;;;;;;;15.03;13.93;;;17.60;99.90;;;;;;5074565;28;20798;-61
2021/09/26 03:44:06;;;;;;;14.20;13.40;;;17.70;99.90;;;;;;5074586;28;20454;-61
2021/09/26 03:46:33;;;;;;;14.77;13.73;;;17.70;99.90;;;;;;5074569;28;20470;-59
2021/09/26 03:49:00;;;;;;;13.80;13.10;;;17.70;99.90;;;;;;5074353;28;20439;-60
2021/09/26 03:51:27;;;;;;;13.67;12.87;;;17.70;99.90;;;;;;5074568;28;20458;-61
2021/09/26 03:53:54;;;;;;;12.83;12.20;;;17.70;99.90;;;;;;5074052;28;20494;-61
2021/09/26 03:56:21;;;;;;;13.40;12.60;;;17.80;99.90;;;;;;5073878;28;20474;-59
2021/09/26 03:58:49;;;;;;;14.30;13.40;;;17.70;99.90;;;;;;5074501;28;20924;-59
2021/09/26 04:01:16;;;;;;;13.90;13.00;;;17.70;99.90;;;;;;5074387;28;20451;-58
2021/09/26 04:03:42;;;;;;;14.80;13.90;;;17.70;99.90;;;;;;5074328;28;20443;-59
2021/09/26 04:06:11;;;;;;;14.70;13.80;;;17.70;99.90;;;;;;5074111;28;20490;-61
2021/09/26 04:08:39;;;;;;;14.23;13.43;;;17.70;99.90;;;;;;5073659;28;21009;-60
2021/09/26 04:11:06;;;;;;;14.73;13.90;;;17.80;99.90;;;;;;5074139;28;20479;-61
2021/09/26 04:13:32;;;;;;;14.37;13.53;;;17.80;99.90;;;;;;5074107;28;20482;-60
2021/09/26 04:16:00;;;;;;;14.70;13.50;;;17.80;99.90;;;;;;5073816;28;20463;-60
2021/09/26 04:18:27;;;;;;;13.17;12.37;;;17.80;99.90;;;;;;5053887;28;20459;-60
2021/09/26 04:20:54;;;;;;;13.60;12.80;;;17.80;99.90;;;;;;5053896;28;20963;-60
2021/09/26 04:23:21;;;;;;;13.80;12.80;;;17.80;99.90;;;;;;5064894;28;20820;-61
2021/09/26 04:25:48;;;;;;;14.70;13.80;;;17.80;99.90;;;;;;5073718;28;20475;-59
2021/09/26 04:28:15;;;;;;;13.63;13.03;;;17.80;99.90;;;;;;5073774;28;20450;-60
2021/09/26 04:30:41;;;;;;;17.70;16.17;;;17.90;99.90;;;;;;5073960;28;20643;-60
2021/09/26 04:33:09;;;;;;;14.17;13.37;;;17.90;99.90;;;;;;5073591;28;20451;-60
2021/09/26 04:35:36;;;;;;;12.73;12.13;;;18.00;99.90;;;;;;5073641;28;20471;-61
2021/09/26 04:38:03;;;;;;;14.87;14.07;;;18.00;99.90;;;;;;5073141;28;20937;-63
2021/09/26 04:40:30;;;;;;;13.80;13.00;;;18.00;99.90;;;;;;5073564;28;20451;-60
2021/09/26 04:42:56;;;;;;;14.90;14.10;;;18.00;99.90;;;;;;5072758;28;20451;-62
2021/09/26 04:45:23;;;;;;;14.80;13.90;;;17.90;99.90;;;;;;5073301;28;20816;-60
2021/09/26 04:47:50;;;;;;;14.97;13.83;;;17.90;99.90;;;;;;5073192;28;20455;-60
2021/09/26 04:50:18;;;;;;;14.77;13.87;;;17.80;99.90;;;;;;5073369;28;20451;-61
2021/09/26 04:52:44;;;;;;;14.00;13.20;;;17.80;99.90;;;;;;5073116;28;20450;-60
2021/09/26 04:55:11;;;;;;;14.37;13.57;;;17.70;99.90;;;;;;5073076;28;20490;-59
2021/09/26 04:57:38;;;;;;;14.50;13.47;;;17.70;99.90;;;;;;5073316;28;20439;-60
2021/09/26 05:00:06;;;;;;;14.70;13.80;;;17.70;99.90;;;;;;5072838;28;20792;-62
2021/09/26 05:02:33;;;;;;;15.50;14.20;;;17.60;99.90;;;;;;5072833;28;20450;-59
2021/09/26 05:04:59;;;;;;;13.77;12.90;;;17.60;99.90;;;;;;5073063;28;20462;-60
2021/09/26 05:07:27;;;;;;;15.30;14.20;;;17.50;99.90;;;;;;5072783;28;20774;-59
2021/09/26 05:09:54;;;;;;;14.90;13.87;;;17.50;99.90;;;;;;5072746;28;20443;-57
2021/09/26 05:12:21;;;;;;;13.57;12.67;;;17.50;99.90;;;;;;5072948;28;20754;-60
2021/09/26 05:14:48;;;;;;;14.90;13.60;;;17.40;99.90;;;;;;5072692;28;20895;-61
2021/09/26 05:17:15;;;;;;;13.83;13.03;;;17.40;99.90;;;;;;5072799;28;20534;-60
2021/09/26 05:19:45;;;;;;;13.20;12.30;;;17.40;99.90;;;;;;5072324;28;20444;-58
2021/09/26 05:22:12;;;;;;;15.13;13.90;;;17.40;99.90;;;;;;5072499;28;20460;-61
2021/09/26 05:24:40;;;;;;;14.77;13.70;;;17.40;99.90;;;;;;5072564;28;20467;-61
2021/09/26 05:27:07;;;;;;;16.30;15.03;;;17.40;99.90;;;;;;5072619;28;20454;-57
2021/09/26 05:29:34;;;;;;;13.77;12.87;;;17.40;99.90;;;;;;5072435;28;20473;-60
2021/09/26 05:32:00;;;;;;;15.20;14.00;;;17.40;99.90;;;;;;5072543;28;20443;-58
2021/09/26 05:34:29;;;;;;;13.83;12.70;;;17.50;99.90;;;;;;5072045;28;20515;-58
2021/09/26 05:36:56;;;;;;;14.10;13.00;;;17.50;99.90;;;;;;5072473;28;20453;-60
2021/09/26 05:39:25;;;;;;;15.73;14.53;;;17.50;99.90;;;;;;5072297;28;20443;-60
2021/09/26 05:41:53;;;;;;;15.00;13.90;;;17.50;99.90;;;;;;5072372;28;20483;-60
2021/09/26 05:44:20;;;;;;;14.77;13.67;;;17.60;99.90;;;;;;5072241;28;20450;-59
2021/09/26 05:46:47;;;;;;;14.10;13.00;;;17.60;99.90;;;;;;5072287;28;20453;-61
2021/09/26 05:49:14;;;;;;;13.10;12.10;;;17.60;99.90;;;;;;5071658;28;20979;-57
2021/09/26 05:51:41;;;;;;;13.93;12.93;;;17.60;99.90;;;;;;5072294;28;20439;-56
2021/09/26 05:54:08;;;;;;;14.80;13.70;;;17.70;99.90;;;;;;5071581;28;20487;-59
2021/09/26 05:56:34;;;;;;;13.90;13.00;;;17.70;99.90;;;;;;5071308;28;20467;-61
2021/09/26 05:59:02;;;;;;;13.43;12.30;;;17.80;99.90;;;;;;5071872;28;20909;-57
2021/09/26 06:01:29;;;;;;;13.57;12.67;;;17.70;99.90;;;;;;5071566;28;20501;-62
2021/09/26 06:03:56;;;;;;;13.27;12.27;;;17.80;99.90;;;;;;5071812;28;20439;-60
2021/09/26 06:06:22;;;;;;;15.47;14.33;;;17.80;99.90;;;;;;5071641;28;20467;-58
2021/09/26 06:08:49;;;;;;;13.67;12.67;;;17.80;99.90;;;;;;5071805;28;20447;-60
2021/09/26 06:11:16;;;;;;;13.40;12.50;;;17.90;99.90;;;;;;5071785;28;20443;-59
2021/09/26 06:13:42;;;;;;;14.27;13.20;;;17.90;99.90;;;;;;5071771;28;20442;-58
2021/09/26 06:16:10;;;;;;;17.57;16.23;;;17.90;99.90;;;;;;5071458;28;20463;-60
2021/09/26 06:18:37;;;;;;;14.40;13.40;;;17.90;99.90;;;;;;5071494;28;20450;-62
2021/09/26 06:21:04;;;;;;;13.97;12.70;;;18.00;99.90;;;;;;5071696;28;20933;-60
2021/09/26 06:23:31;;;;;;;14.67;13.63;;;17.90;99.90;;;;;;5071617;28;20451;-61
2021/09/26 06:26:00;;;;;;;14.53;13.53;;;17.90;99.90;;;;;;5071511;28;20475;-61
2021/09/26 06:28:27;;;;;;;16.27;15.00;;;18.00;99.90;;;;;;5071431;28;20508;-60
2021/09/26 06:30:53;;;;;;;15.47;14.37;;;18.00;99.90;;;;;;5071399;28;20440;-59
2021/09/26 06:33:21;;;;;;;13.87;12.83;;;18.10;99.90;;;;;;5071537;28;20935;-60
2021/09/26 06:35:48;;;;;;;14.40;13.27;;;18.10;99.90;;;;;;5071526;28;20494;-60
2021/09/26 06:38:15;;;;;;;13.40;12.47;;;18.30;99.90;;;;;;5071125;28;20447;-61
2021/09/26 06:40:42;;;;;;;15.10;13.80;;;18.40;99.90;;;;;;5071438;28;20815;-61
2021/09/26 06:43:08;;;;;;;14.33;13.33;;;18.40;99.90;;;;;;5071621;28;21058;-59
2021/09/26 06:45:35;;;;;;;14.30;13.40;;;18.50;99.90;;;;;;5070992;28;20851;-61
2021/09/26 06:48:02;;;;;;;14.07;13.27;;;18.50;99.90;;;;;;5071188;28;20783;-60
2021/09/26 06:50:30;;;;;;;14.33;13.40;;;18.60;99.90;;;;;;5071015;28;20447;-61
2021/09/26 06:52:57;;;;;;;14.37;13.17;;;18.70;99.90;;;;;;5071089;28;20470;-62
2021/09/26 06:55:23;;;;;;;13.87;12.97;;;18.90;99.90;;;;;;5071225;28;20566;-61
2021/09/26 06:57:50;;;;;;;13.67;12.77;;;18.90;99.90;;;;;;5071011;28;20454;-63
2021/09/26 07:00:18;;;;;;;14.93;13.93;;;19.10;99.90;;;;;;5070873;28;20811;-63
2021/09/26 07:02:44;;;;;;;15.10;14.20;;;19.10;99.90;;;;;;5071241;28;20447;-62
2021/09/26 07:05:12;;;;;;;14.50;13.60;;;19.10;99.90;;;;;;5071177;28;20455;-63
2021/09/26 07:07:43;;;;;;;14.93;13.80;;;19.10;99.90;;;;;;5074517;28;20453;-62
2021/09/26 07:10:11;;;;;;;15.83;14.73;;;19.10;99.90;;;;;;5075167;28;20987;-61
2021/09/26 07:12:38;;;;;;;15.33;14.20;;;19.10;99.90;;;;;;5075030;28;20458;-60
2021/09/26 07:15:07;;;;;;;15.67;14.70;;;19.20;99.90;;;;;;5074849;28;20996;-60
2021/09/26 07:17:34;;;;;;;15.90;14.90;;;19.20;99.90;;;;;;5075062;28;20538;-60
2021/09/26 07:20:01;;;;;;;14.60;13.70;;;19.30;99.90;;;;;;5074890;28;20446;-63
2021/09/26 07:22:28;;;;;;;15.67;14.70;;;19.30;99.90;;;;;;5075034;28;20443;-64
2021/09/26 07:24:57;;;;;;;15.00;14.20;;;19.30;99.90;;;;;;5074826;28;20478;-64
2021/09/26 07:27:25;;;;;;;16.70;15.60;;;19.40;99.90;;;;;;5074311;28;20516;-61
2021/09/26 07:29:54;;;;;;;15.33;14.33;;;19.50;99.90;;;;;;5074564;28;20439;-61
2021/09/26 07:32:21;;;;;;;15.00;14.00;;;19.60;99.90;;;;;;5074846;28;20447;-61
2021/09/26 07:34:47;;;;;;;15.30;14.47;;;19.80;99.90;;;;;;5074520;28;20487;-61
2021/09/26 07:37:14;;;;;;;16.30;15.33;;;20.00;99.90;;;;;;5074763;28;20807;-60
2021/09/26 07:39:41;;;;;;;16.63;15.60;;;20.20;99.90;;;;;;5074119;28;20450;-62
2021/09/26 07:42:09;;;;;;;17.10;15.90;;;20.30;99.90;;;;;;5054682;28;20948;-60
2021/09/26 07:44:36;;;;;;;15.97;15.07;;;20.20;99.90;;;;;;5054503;28;20953;-59
2021/09/26 07:47:03;;;;;;;16.80;15.40;;;20.30;99.90;;;;;;5054595;28;20463;-60
2021/09/26 07:49:30;;;;;;;16.10;15.17;;;20.30;99.90;;;;;;5054171;28;20448;-63
2021/09/26 07:51:56;;;;;;;16.00;14.80;;;20.30;99.90;;;;;;5054493;28;20451;-62
2021/09/26 07:54:23;;;;;;;18.23;16.67;;;20.30;99.90;;;;;;5062241;28;21027;-60
2021/09/26 07:56:50;;;;;;;18.20;16.90;;;20.30;99.90;;;;;;5074432;28;20451;-62
2021/09/26 07:59:19;;;;;;;16.67;15.60;;;20.30;99.90;;;;;;5074174;28;20805;-62
2021/09/26 08:01:46;;;;;;;18.27;15.13;;;20.30;99.90;;;;;;5074272;28;20448;-63
2021/09/26 08:04:13;;;;;;;15.47;14.47;;;20.40;99.90;;;;;;5074482;28;20451;-62
2021/09/26 08:06:40;;;;;;;17.60;16.50;;;20.50;99.90;;;;;;5074354;28;20455;-58
2021/09/26 08:09:06;;;;;;;16.43;15.20;;;20.50;99.90;;;;;;5073775;28;20458;-60
2021/09/26 08:11:33;;;;;;;16.30;15.10;;;20.60;99.90;;;;;;5074180;28;20446;-60
2021/09/26 08:14:00;;;;;;;15.27;14.27;;;20.60;99.90;;;;;;5074203;28;20439;-62
2021/09/26 08:16:29;;;;;;;16.77;15.57;;;20.80;99.90;;;;;;5073496;28;20569;-61
2021/09/26 08:18:55;;;;;;;17.13;16.03;;;20.90;99.90;;;;;;5072754;28;20960;-58
2021/09/26 08:21:22;;;;;;;16.37;15.27;;;20.90;99.90;;;;;;5073704;28;20454;-62
2021/09/26 08:23:49;;;;;;;18.10;17.00;;;20.90;99.90;;;;;;5073912;28;20813;-62
2021/09/26 08:26:16;;;;;;;18.03;16.93;;;21.00;99.90;;;;;;5074203;28;20471;-59
2021/09/26 08:28:42;;;;;;;16.13;15.13;;;21.10;99.90;;;;;;5073432;28;20450;-56
2021/09/26 08:31:09;;;;;;;18.40;17.30;;;21.10;99.90;;;;;;5073789;28;20447;-56
2021/09/26 08:33:37;;;;;;;18.90;17.70;;;21.20;99.90;;;;;;5073718;28;20448;-60
2021/09/26 08:36:04;;;;;;;17.63;16.40;;;21.30;99.90;;;;;;5073413;28;20510;-61
2021/09/26 08:38:31;;;;;;;17.97;16.57;;;21.40;99.90;;;;;;5073374;28;20458;-60
2021/09/26 08:40:58;;;;;;;16.57;15.53;;;21.50;99.90;;;;;;5073558;28;20447;-62
2021/09/26 08:43:25;;;;;;;17.63;16.30;;;21.60;99.90;;;;;;5073129;28;20558;-61
2021/09/26 08:45:51;;;;;;;16.50;15.50;;;21.70;99.90;;;;;;5073546;28;20471;-61
2021/09/26 08:48:18;;;;;;;16.20;15.30;;;21.80;99.90;;;;;;5073292;28;20447;-61
2021/09/26 08:50:46;;;;;;;16.73;15.40;;;21.90;99.90;;;;;;5073347;28;20439;-60
2021/09/26 08:53:13;;;;;;;16.73;15.60;;;22.00;99.90;;;;;;5073139;28;20443;-60
2021/09/26 08:55:40;;;;;;;15.07;14.20;;;22.00;99.90;;;;;;5073179;28;20980;-60
2021/09/26 08:58:07;;;;;;;17.27;15.87;;;22.20;99.90;;;;;;5072787;28;20440;-59
2021/09/26 09:00:36;;;;;;;16.17;15.07;;;22.30;99.90;;;;;;5073156;28;20447;-61
2021/09/26 09:03:03;;;;;;;16.30;14.90;;;22.30;99.90;;;;;;5073373;28;21055;-62
2021/09/26 09:05:31;;;;;;;14.90;14.00;;;22.40;99.90;;;;;;5072817;28;20467;-63
2021/09/26 09:08:09;;;;;;;15.70;14.60;;;22.50;99.90;;;;;;5072851;28;20452;-60
2021/09/26 09:10:41;;;;;;;14.73;13.63;;;22.60;99.90;;;;;;5073078;28;20442;-62
2021/09/26 09:13:10;;;;;;;14.57;13.80;;;22.70;99.90;;;;;;5072777;28;20456;-62
2021/09/26 09:15:37;;;;;;;14.80;14.07;;;22.80;99.90;;;;;;5072614;28;20808;-61
2021/09/26 09:18:05;;;;;;;15.30;14.10;;;22.90;99.90;;;;;;5072568;28;20455;-62
2021/09/26 09:20:34;;;;;;;14.17;13.33;;;23.00;99.90;;;;;;5072533;28;20451;-59
2021/09/26 09:23:17;;;;;;;15.80;14.47;;;23.10;99.90;;;;;;5072731;28;21023;-61
2021/09/26 09:25:45;;;;;;;16.67;15.77;;;23.20;99.90;;;;;;5072067;28;21000;-61
2021/09/26 09:28:15;;;;;;;15.53;14.63;;;23.30;99.90;;;;;;5072575;28;20450;-61
2021/09/26 09:30:44;;;;;;;15.60;14.60;;;23.40;99.90;;;;;;5072358;28;20444;-61
2021/09/26 09:33:12;;;;;;;16.13;14.77;;;23.50;99.90;;;;;;5072554;28;20527;-60
2021/09/26 09:35:42;;;;;;;15.97;14.83;;;23.60;99.90;;;;;;5072227;28;20483;-60
2021/09/26 09:38:09;;;;;;;16.50;15.70;;;23.90;99.90;;;;;;5072365;28;20444;-63
2021/09/26 09:40:38;;;;;;;15.20;14.30;;;24.10;99.90;;;;;;5072127;28;20820;-62
2021/09/26 09:43:06;;;;;;;16.80;16.00;;;24.10;99.90;;;;;;5072373;28;20479;-63
2021/09/26 09:45:36;;;;;;;16.77;15.93;;;24.30;99.90;;;;;;5072076;28;20468;-61
2021/09/26 09:48:10;;;;;;;16.73;15.83;;;24.40;99.90;;;;;;5072109;28;20466;-63
2021/09/26 09:50:46;;;;;;;16.57;15.57;;;24.30;99.90;;;;;;5072150;28;20443;-59
2021/09/26 09:53:29;;;;;;;15.80;14.83;;;24.40;99.90;;;;;;5071952;28;20439;-61
2021/09/26 09:56:07;;;;;;;15.53;14.73;;;24.60;99.90;;;;;;5072001;28;20482;-63
2021/09/26 09:58:36;;;;;;;15.87;14.87;;;25.00;99.90;;;;;;5071866;28;20442;-62
2021/09/26 10:01:05;;;;;;;18.13;16.97;;;25.20;99.90;;;;;;5072038;28;20980;-62
2021/09/26 10:03:42;;;;;;;15.40;14.60;;;25.70;99.90;;;;;;5071946;28;20933;-62
2021/09/26 10:06:42;;;;;;;16.70;15.70;;;25.60;99.90;;;;;;5071823;28;20459;-63
2021/09/26 10:09:21;;;;;;;16.40;15.47;;;25.70;99.90;;;;;;5051699;28;20444;-63
2021/09/26 10:11:51;;;;;;;17.93;16.93;;;25.70;99.90;;;;;;5051858;28;20444;-63
2021/09/26 10:14:19;;;;;;;16.90;16.10;;;25.90;99.90;;;;;;5052087;28;20436;-60
2021/09/26 10:16:46;;;;;;;16.90;16.20;;;26.10;99.90;;;;;;5051494;28;20849;-61
2021/09/26 10:19:13;;;;;;;16.50;15.60;;;26.10;99.90;;;;;;5051606;28;20451;-61
2021/09/26 10:21:40;;;;;;;16.50;15.67;;;26.00;99.90;;;;;;5056650;28;20809;-61
2021/09/26 10:24:08;;;;;;;16.10;15.30;;;25.80;99.90;;;;;;5071422;28;20454;-60
2021/09/26 10:26:38;;;;;;;16.10;15.30;;;25.80;99.90;;;;;;5071647;28;20463;-62
2021/09/26 10:29:09;;;;;;;16.13;15.33;;;25.80;99.90;;;;;;5071409;28;20474;-59
2021/09/26 10:31:37;;;;;;;17.57;16.57;;;26.10;99.90;;;;;;5071691;28;20443;-60
2021/09/26 10:34:04;;;;;;;14.00;13.40;;;26.30;99.90;;;;;;5071591;28;20451;-61
2021/09/26 10:36:32;;;;;;;15.33;14.23;;;26.40;99.90;;;;;;5071082;28;20533;-59
2021/09/26 10:39:00;;;;;;;16.17;15.37;;;26.70;99.90;;;;;;5071158;28;20451;-62
2021/09/26 10:41:27;;;;;;;14.90;14.10;;;26.90;99.90;;;;;;5070819;28;20443;-63
2021/09/26 10:43:54;;;;;;;15.27;14.53;;;26.90;99.90;;;;;;5071471;28;20455;-61
2021/09/26 10:46:26;;;;;;;16.03;15.10;;;26.90;99.90;;;;;;5071507;28;20584;-61
2021/09/26 10:49:09;;;;;;;16.00;15.10;;;26.90;99.90;;;;;;5071308;28;20955;-60
2021/09/26 10:51:51;;;;;;;16.57;15.57;;;27.10;99.90;;;;;;5071389;28;20812;-61
2021/09/26 10:54:28;;;;;;;15.37;14.47;;;27.10;99.90;;;;;;5071223;28;20867;-61
2021/09/26 10:57:24;;;;;;;15.20;14.60;;;27.20;99.90;;;;;;5071158;28;20489;-62
2021/09/26 10:59:53;;;;;;;15.50;14.90;;;27.30;98.40;;;;;;5070928;28;20439;-59
2021/09/26 11:02:53;;;;;;;16.37;15.20;;;27.10;98.70;;;;;;5071569;28;20500;-61
2021/09/26 11:05:35;;;;;;;17.03;16.13;;;27.00;98.60;;;;;;5071013;28;20463;-60
2021/09/26 11:08:02;;;;;;;15.63;14.73;;;27.20;97.60;;;;;;5071246;28;20508;-60
2021/09/26 11:10:44;;;;;;;16.27;15.57;;;27.20;97.80;;;;;;5071192;28;20465;-60
2021/09/26 11:13:18;;;;;;;15.50;14.77;;;27.40;97.50;;;;;;5071085;28;20443;-61
2021/09/26 11:16:01;;;;;;;16.47;15.87;;;27.50;96.80;;;;;;5070904;28;20482;-59
2021/09/26 11:18:54;;;;;;;17.10;16.10;;;28.20;96.00;;;;;;5058717;28;20455;-60
2021/09/26 11:21:49;;;;;;;17.10;16.20;;;28.50;95.10;;;;;;5070989;28;20810;-59
2021/09/26 11:24:35;;;;;;;16.03;15.37;;;28.30;93.90;;;;;;5071008;28;20439;-62
2021/09/26 11:27:11;;;;;;;17.40;16.30;;;28.20;94.20;;;;;;5070919;28;20466;-59
2021/09/26 11:30:13;;;;;;;15.90;15.00;;;27.90;94.40;;;;;;5071049;28;20935;-59
2021/09/26 11:32:40;;;;;;;16.13;15.43;;;27.70;95.10;;;;;;5070787;28;20461;-59
2021/09/26 11:35:23;;;;;;;16.83;15.87;;;27.70;94.30;;;;;;5050809;28;20824;-59
2021/09/26 11:37:57;;;;;;;15.60;14.80;;;28.00;93.70;;;;;;5050810;28;20805;-60
2021/09/26 11:40:55;;;;;;;17.73;16.00;;;27.80;92.80;;;;;;5050847;28;20464;-60
2021/09/26 11:43:24;;;;;;;17.13;16.40;;;27.40;92.30;;;;;;5050782;28;20458;-59
2021/09/26 11:45:52;;;;;;;17.30;16.60;;;27.10;93.10;;;;;;5050644;28;20462;-59
2021/09/26 11:48:18;;;;;;;17.03;16.37;;;26.90;93.40;;;;;;5064784;28;20470;-61
2021/09/26 11:50:48;;;;;;;16.93;16.00;;;27.00;93.20;;;;;;5070447;28;20462;-59
2021/09/26 11:53:16;;;;;;;16.10;15.40;;;27.20;93.20;;;;;;5073134;28;20440;-60
2021/09/26 11:55:43;;;;;;;16.10;15.33;;;27.20;92.70;;;;;;5074240;28;20988;-61
2021/09/26 11:58:11;;;;;;;16.43;15.63;;;27.30;92.60;;;;;;5074120;28;20447;-60
2021/09/26 12:00:41;;;;;;;16.23;15.63;;;27.10;92.80;;;;;;5074040;28;20448;-61
2021/09/26 12:03:16;;;;;;;15.30;14.60;;;27.20;93.00;;;;;;5074267;28;20466;-60
2021/09/26 12:05:43;;;;;;;14.80;14.10;;;26.90;93.50;;;;;;5074136;28;20520;-61
2021/09/26 12:08:11;;;;;;;14.60;13.40;;;26.80;93.80;;;;;;5073900;28;20447;-59
2021/09/26 12:10:39;;;;;;;15.60;14.53;;;26.60;94.60;;;;;;5074075;28;20439;-60
2021/09/26 12:13:17;;;;;;;16.00;15.00;;;26.60;95.30;;;;;;5073891;28;20462;-60
2021/09/26 12:15:44;;;;;;;15.93;15.20;;;26.70;95.70;;;;;;5073808;28;20489;-59
2021/09/26 12:18:23;;;;;;;14.43;13.73;;;26.60;95.80;;;;;;5073713;28;20454;-61
2021/09/26 12:20:51;;;;;;;15.20;14.60;;;26.60;95.50;;;;;;5073792;28;20450;-60
2021/09/26 12:23:25;;;;;;;16.20;15.50;;;26.40;95.80;;;;;;5073961;28;20448;-59
2021/09/26 12:26:04;;;;;;;14.87;14.20;;;26.20;95.70;;;;;;5073436;28;20476;-59
2021/09/26 12:28:34;;;;;;;14.60;13.80;;;26.00;96.50;;;;;;5073566;28;20451;-61
2021/09/26 12:31:01;;;;;;;15.60;14.73;;;26.00;96.80;;;;;;5073966;28;20447;-59
2021/09/26 12:33:31;;;;;;;16.43;15.37;;;26.10;97.10;;;;;;5073466;28;20960;-59
2021/09/26 12:36:00;;;;;;;14.50;13.90;;;26.20;97.10;;;;;;5073331;28;20478;-59
2021/09/26 12:38:31;;;;;;;14.87;14.17;;;26.20;97.20;;;;;;5073547;28;20454;-60
2021/09/26 12:41:02;;;;;;;14.53;13.90;;;26.30;97.40;;;;;;5073328;28;20443;-58